sensor_id;sensor_type;location;lat;lon;timestamp;pressure;altitude;pressure_sealevel;temperature;humidity
71735;BME280;59577;52.122;5.406;2023-02-13T00:01:51;103912.41;;;6.55;87.16
71735;BME280;59577;52.122;5.406;2023-02-13T00:04:18;103913.22;;;6.55;87.24
71735;BME280;59577;52.122;5.406;2023-02-13T00:06:44;103912.16;;;6.56;87.29
71735;BME280;59577;52.122;5.406;2023-02-13T00:09:13;103911.34;;;6.56;87.29
71735;BME280;59577;52.122;5.406;2023-02-13T00:11:40;103909.97;;;6.53;87.92
71735;BME280;59577;52.122;5.406;2023-02-13T00:14:06;103902.13;;;6.52;87.30
71735;BME280;59577;52.122;5.406;2023-02-13T00:16:33;103913.72;;;6.52;87.69
71735;BME280;59577;52.122;5.406;2023-02-13T00:18:59;103904.81;;;6.52;88.22
71735;BME280;59577;52.122;5.406;2023-02-13T00:21:26;103898.88;;;6.50;87.88
71735;BME280;59577;52.122;5.406;2023-02-13T00:23:52;103896.44;;;6.48;88.12
71735;BME280;59577;52.122;5.406;2023-02-13T00:26:19;103893.97;;;6.47;88.18
71735;BME280;59577;52.122;5.406;2023-02-13T00:28:45;103890.50;;;6.46;88.19
71735;BME280;59577;52.122;5.406;2023-02-13T00:31:17;103893.44;;;6.45;88.04
71735;BME280;59577;52.122;5.406;2023-02-13T00:33:44;103892.38;;;6.46;87.99
71735;BME280;59577;52.122;5.406;2023-02-13T00:36:13;103891.78;;;6.44;88.17
71735;BME280;59577;52.122;5.406;2023-02-13T00:38:41;103895.56;;;6.43;87.83
71735;BME280;59577;52.122;5.406;2023-02-13T00:41:08;103892.31;;;6.40;87.62
71735;BME280;59577;52.122;5.406;2023-02-13T00:43:35;103888.53;;;6.42;87.49
71735;BME280;59577;52.122;5.406;2023-02-13T00:46:02;103892.53;;;6.39;87.35
71735;BME280;59577;52.122;5.406;2023-02-13T00:48:30;103889.06;;;6.38;87.20
71735;BME280;59577;52.122;5.406;2023-02-13T00:50:57;103888.22;;;6.38;86.70
71735;BME280;59577;52.122;5.406;2023-02-13T00:53:25;103888.78;;;6.40;86.96
71735;BME280;59577;52.122;5.406;2023-02-13T00:55:52;103878.00;;;6.40;87.23
71735;BME280;59577;52.122;5.406;2023-02-13T00:58:19;103879.91;;;6.39;87.57
71735;BME280;59577;52.122;5.406;2023-02-13T01:00:46;103887.72;;;6.41;87.63
71735;BME280;59577;52.122;5.406;2023-02-13T01:03:14;103877.78;;;6.42;87.89
71735;BME280;59577;52.122;5.406;2023-02-13T01:05:42;103885.03;;;6.41;88.37
71735;BME280;59577;52.122;5.406;2023-02-13T01:08:10;103874.28;;;6.41;88.26
71735;BME280;59577;52.122;5.406;2023-02-13T01:10:38;103882.91;;;6.43;88.18
71735;BME280;59577;52.122;5.406;2023-02-13T01:13:05;103881.28;;;6.42;88.25
71735;BME280;59577;52.122;5.406;2023-02-13T01:15:32;103887.47;;;6.43;88.77
71735;BME280;59577;52.122;5.406;2023-02-13T01:17:59;103893.09;;;6.41;88.41
71735;BME280;59577;52.122;5.406;2023-02-13T01:20:27;103892.31;;;6.40;88.36
71735;BME280;59577;52.122;5.406;2023-02-13T01:22:55;103888.22;;;6.38;87.54
71735;BME280;59577;52.122;5.406;2023-02-13T01:25:22;103891.97;;;6.37;87.44
71735;BME280;59577;52.122;5.406;2023-02-13T01:27:49;103889.53;;;6.35;87.41
71735;BME280;59577;52.122;5.406;2023-02-13T01:30:16;103883.91;;;6.37;87.44
71735;BME280;59577;52.122;5.406;2023-02-13T01:32:44;103885.78;;;6.36;87.53
71735;BME280;59577;52.122;5.406;2023-02-13T01:35:12;103880.38;;;6.36;87.85
71735;BME280;59577;52.122;5.406;2023-02-13T01:37:39;103876.88;;;6.36;88.07
71735;BME280;59577;52.122;5.406;2023-02-13T01:40:08;103882.50;;;6.34;88.38
71735;BME280;59577;52.122;5.406;2023-02-13T01:42:35;103883.59;;;6.33;88.63
71735;BME280;59577;52.122;5.406;2023-02-13T01:53:43;103870.31;;;6.27;87.90
71735;BME280;59577;52.122;5.406;2023-02-13T01:56:19;103873.00;;;6.27;87.98
71735;BME280;59577;52.122;5.406;2023-02-13T01:58:51;103868.44;;;6.27;88.01
71735;BME280;59577;52.122;5.406;2023-02-13T02:01:18;103867.63;;;6.27;88.22
71735;BME280;59577;52.122;5.406;2023-02-13T02:03:49;103869.47;;;6.26;88.60
71735;BME280;59577;52.122;5.406;2023-02-13T02:06:34;103864.94;;;6.27;88.41
71735;BME280;59577;52.122;5.406;2023-02-13T02:09:06;103865.19;;;6.25;88.02
71735;BME280;59577;52.122;5.406;2023-02-13T02:12:26;103862.25;;;6.27;88.36
71735;BME280;59577;52.122;5.406;2023-02-13T02:14:32;103865.97;;;6.26;88.57
71735;BME280;59577;52.122;5.406;2023-02-13T02:16:59;103858.72;;;6.26;88.08
71735;BME280;59577;52.122;5.406;2023-02-13T02:19:48;103857.66;;;6.27;88.07
71735;BME280;59577;52.122;5.406;2023-02-13T02:28:06;103850.97;;;6.30;88.66
71735;BME280;59577;52.122;5.406;2023-02-13T02:31:05;103859.03;;;6.30;88.94
71735;BME280;59577;52.122;5.406;2023-02-13T02:34:03;103865.50;;;6.29;89.00
71735;BME280;59577;52.122;5.406;2023-02-13T02:37:00;103865.50;;;6.29;89.21
71735;BME280;59577;52.122;5.406;2023-02-13T02:42:42;103854.19;;;6.27;89.18
71735;BME280;59577;52.122;5.406;2023-02-13T02:45:26;103853.63;;;6.25;88.97
71735;BME280;59577;52.122;5.406;2023-02-13T02:51:06;103849.28;;;6.24;88.76
71735;BME280;59577;52.122;5.406;2023-02-13T02:54:06;103848.22;;;6.25;88.77
71735;BME280;59577;52.122;5.406;2023-02-13T02:56:57;103854.41;;;6.25;89.23
71735;BME280;59577;52.122;5.406;2023-02-13T02:59:27;103848.47;;;6.23;88.91
71735;BME280;59577;52.122;5.406;2023-02-13T03:02:13;103848.47;;;6.23;88.73
71735;BME280;59577;52.122;5.406;2023-02-13T03:05:21;103847.63;;;6.22;89.06
71735;BME280;59577;52.122;5.406;2023-02-13T03:08:08;103840.66;;;6.21;88.71
71735;BME280;59577;52.122;5.406;2023-02-13T03:10:36;103847.31;;;6.19;88.72
71735;BME280;59577;52.122;5.406;2023-02-13T03:13:43;103841.94;;;6.19;89.01
71735;BME280;59577;52.122;5.406;2023-02-13T03:16:17;103844.63;;;6.19;89.08
71735;BME280;59577;52.122;5.406;2023-02-13T03:19:36;103847.63;;;6.22;88.84
71735;BME280;59577;52.122;5.406;2023-02-13T03:22:38;103846.59;;;6.24;89.02
71735;BME280;59577;52.122;5.406;2023-02-13T03:25:17;103849.84;;;6.26;89.25
71735;BME280;59577;52.122;5.406;2023-02-13T03:33:52;103853.63;;;6.25;89.40
71735;BME280;59577;52.122;5.406;2023-02-13T03:36:44;103847.41;;;6.24;89.15
71735;BME280;59577;52.122;5.406;2023-02-13T03:42:20;103853.63;;;6.25;89.50
71735;BME280;59577;52.122;5.406;2023-02-13T03:44:54;103847.41;;;6.24;89.73
71735;BME280;59577;52.122;5.406;2023-02-13T03:47:43;103847.41;;;6.24;89.94
71735;BME280;59577;52.122;5.406;2023-02-13T03:50:11;103851.97;;;6.24;89.98
71735;BME280;59577;52.122;5.406;2023-02-13T03:52:57;103851.16;;;6.23;89.43
71735;BME280;59577;52.122;5.406;2023-02-13T03:55:33;103846.03;;;6.21;89.55
71735;BME280;59577;52.122;5.406;2023-02-13T03:58:23;103845.19;;;6.21;89.46
71735;BME280;59577;52.122;5.406;2023-02-13T04:01:15;103848.16;;;6.19;89.58
71735;BME280;59577;52.122;5.406;2023-02-13T04:06:33;103847.31;;;6.19;89.65
71735;BME280;59577;52.122;5.406;2023-02-13T04:09:01;103841.38;;;6.17;89.60
71735;BME280;59577;52.122;5.406;2023-02-13T04:11:38;103840.56;;;6.16;89.44
71735;BME280;59577;52.122;5.406;2023-02-13T04:14:10;103841.06;;;6.13;89.36
71735;BME280;59577;52.122;5.406;2023-02-13T04:16:43;103839.41;;;6.12;89.37
71735;BME280;59577;52.122;5.406;2023-02-13T04:19:12;103843.75;;;6.13;89.03
71735;BME280;59577;52.122;5.406;2023-02-13T04:21:39;103841.06;;;6.13;88.79
71735;BME280;59577;52.122;5.406;2023-02-13T04:24:06;103848.09;;;6.14;89.29
71735;BME280;59577;52.122;5.406;2023-02-13T04:26:39;103841.38;;;6.17;89.09
71735;BME280;59577;52.122;5.406;2023-02-13T04:29:07;103842.19;;;6.17;89.24
71735;BME280;59577;52.122;5.406;2023-02-13T04:31:33;103847.56;;;6.17;88.97
71735;BME280;59577;52.122;5.406;2023-02-13T04:34:00;103843.59;;;6.20;88.63
71735;BME280;59577;52.122;5.406;2023-02-13T04:36:27;103836.06;;;6.22;88.89
71735;BME280;59577;52.122;5.406;2023-02-13T04:39:10;103847.63;;;6.22;88.86
71735;BME280;59577;52.122;5.406;2023-02-13T04:41:36;103843.34;;;6.21;88.84
71735;BME280;59577;52.122;5.406;2023-02-13T04:44:03;103846.03;;;6.21;88.85
71735;BME280;59577;52.122;5.406;2023-02-13T04:46:30;103843.34;;;6.21;88.90
71735;BME280;59577;52.122;5.406;2023-02-13T04:48:56;103840.41;;;6.23;88.70
71735;BME280;59577;52.122;5.406;2023-02-13T04:51:23;103833.94;;;6.24;89.20
71735;BME280;59577;52.122;5.406;2023-02-13T04:53:49;103834.72;;;6.19;88.99
71735;BME280;59577;52.122;5.406;2023-02-13T04:56:16;103833.88;;;6.19;89.14
71735;BME280;59577;52.122;5.406;2023-02-13T04:58:45;103836.81;;;6.17;88.77
71735;BME280;59577;52.122;5.406;2023-02-13T05:01:15;103831.44;;;6.17;88.49
71735;BME280;59577;52.122;5.406;2023-02-13T05:03:42;103828.19;;;6.15;88.68
71735;BME280;59577;52.122;5.406;2023-02-13T05:06:09;103819.31;;;6.15;88.47
71735;BME280;59577;52.122;5.406;2023-02-13T05:08:36;103825.50;;;6.15;88.57
71735;BME280;59577;52.122;5.406;2023-02-13T05:11:02;103820.13;;;6.15;88.74
71735;BME280;59577;52.122;5.406;2023-02-13T05:13:29;103818.50;;;6.14;88.51
71735;BME280;59577;52.122;5.406;2023-02-13T05:15:55;103814.97;;;6.14;88.67
71735;BME280;59577;52.122;5.406;2023-02-13T05:18:22;103822.25;;;6.13;89.10
71735;BME280;59577;52.122;5.406;2023-02-13T05:20:48;103816.84;;;6.13;89.04
71735;BME280;59577;52.122;5.406;2023-02-13T05:23:35;103819.53;;;6.13;88.75
71735;BME280;59577;52.122;5.406;2023-02-13T05:26:02;103801.78;;;6.12;89.10
71735;BME280;59577;52.122;5.406;2023-02-13T05:28:29;103807.16;;;6.12;89.15
71735;BME280;59577;52.122;5.406;2023-02-13T05:31:14;103807.66;;;6.09;89.15
71735;BME280;59577;52.122;5.406;2023-02-13T05:33:41;103803.91;;;6.10;88.98
71735;BME280;59577;52.122;5.406;2023-02-13T05:36:07;103819.78;;;6.12;89.11
71735;BME280;59577;52.122;5.406;2023-02-13T05:38:34;103811.97;;;6.10;89.11
71735;BME280;59577;52.122;5.406;2023-02-13T05:41:01;103813.59;;;6.11;89.23
71735;BME280;59577;52.122;5.406;2023-02-13T05:43:28;103806.09;;;6.13;89.26
71735;BME280;59577;52.122;5.406;2023-02-13T05:46:06;103822.00;;;6.15;89.34
71735;BME280;59577;52.122;5.406;2023-02-13T05:48:34;103808.31;;;6.16;89.53
71735;BME280;59577;52.122;5.406;2023-02-13T05:51:01;103813.69;;;6.16;89.59
71735;BME280;59577;52.122;5.406;2023-02-13T05:53:28;103813.69;;;6.16;89.63
71735;BME280;59577;52.122;5.406;2023-02-13T05:55:55;103817.41;;;6.15;89.61
71735;BME280;59577;52.122;5.406;2023-02-13T05:58:22;103814.16;;;6.13;89.39
71735;BME280;59577;52.122;5.406;2023-02-13T06:00:48;103811.25;;;6.15;89.58
71735;BME280;59577;52.122;5.406;2023-02-13T06:03:15;103812.84;;;6.16;89.56
71735;BME280;59577;52.122;5.406;2023-02-13T06:05:41;103809.59;;;6.14;89.77
71735;BME280;59577;52.122;5.406;2023-02-13T06:08:08;103808.78;;;6.13;89.87
71735;BME280;59577;52.122;5.406;2023-02-13T06:10:34;103814.97;;;6.14;89.73
71735;BME280;59577;52.122;5.406;2023-02-13T06:13:01;103805.06;;;6.14;89.58
71735;BME280;59577;52.122;5.406;2023-02-13T06:15:27;103812.84;;;6.16;90.10
71735;BME280;59577;52.122;5.406;2023-02-13T06:17:53;103806.91;;;6.14;89.72
71735;BME280;59577;52.122;5.406;2023-02-13T06:20:20;103820.34;;;6.14;89.95
71735;BME280;59577;52.122;5.406;2023-02-13T06:22:48;103808.78;;;6.13;90.43
71735;BME280;59577;52.122;5.406;2023-02-13T06:25:15;103816.84;;;6.13;90.37
71735;BME280;59577;52.122;5.406;2023-02-13T06:27:42;103815.81;;;6.14;90.32
71735;BME280;59577;52.122;5.406;2023-02-13T06:30:09;103812.84;;;6.16;89.99
71735;BME280;59577;52.122;5.406;2023-02-13T06:32:35;103811.25;;;6.15;90.18
71735;BME280;59577;52.122;5.406;2023-02-13T06:35:02;103815.81;;;6.14;90.15
71735;BME280;59577;52.122;5.406;2023-02-13T06:37:30;103818.75;;;6.13;90.38
71735;BME280;59577;52.122;5.406;2023-02-13T06:39:57;103824.94;;;6.13;90.60
71735;BME280;59577;52.122;5.406;2023-02-13T06:42:23;103822.25;;;6.13;90.61
71735;BME280;59577;52.122;5.406;2023-02-13T06:44:50;103823.88;;;6.14;90.50
71735;BME280;59577;52.122;5.406;2023-02-13T06:47:16;103820.91;;;6.16;90.48
71735;BME280;59577;52.122;5.406;2023-02-13T06:49:43;103817.97;;;6.17;90.82
71735;BME280;59577;52.122;5.406;2023-02-13T06:52:09;103821.50;;;6.18;90.75
71735;BME280;59577;52.122;5.406;2023-02-13T06:54:36;103815.88;;;6.19;90.81
71735;BME280;59577;52.122;5.406;2023-02-13T06:57:13;103827.19;;;6.21;90.61
71735;BME280;59577;52.122;5.406;2023-02-13T06:59:40;103818.88;;;6.23;90.68
71735;BME280;59577;52.122;5.406;2023-02-13T07:02:09;103818.81;;;6.18;90.83
71735;BME280;59577;52.122;5.406;2023-02-13T07:04:36;103831.44;;;6.17;90.79
71735;BME280;59577;52.122;5.406;2023-02-13T07:07:04;103831.94;;;6.14;91.04
71735;BME280;59577;52.122;5.406;2023-02-13T07:09:30;103833.06;;;6.18;91.25
71735;BME280;59577;52.122;5.406;2023-02-13T07:11:57;103837.13;;;6.21;91.35
71735;BME280;59577;52.122;5.406;2023-02-13T07:14:24;103834.19;;;6.22;91.42
71735;BME280;59577;52.122;5.406;2023-02-13T07:16:50;103833.94;;;6.24;90.95
71735;BME280;59577;52.122;5.406;2023-02-13T07:19:17;103837.19;;;6.26;91.23
71735;BME280;59577;52.122;5.406;2023-02-13T07:21:43;103834.50;;;6.26;91.16
71735;BME280;59577;52.122;5.406;2023-02-13T07:24:10;103832.66;;;6.27;91.16
71735;BME280;59577;52.122;5.406;2023-02-13T07:26:36;103840.72;;;6.27;91.39
71735;BME280;59577;52.122;5.406;2023-02-13T07:29:03;103832.41;;;6.28;91.05
71735;BME280;59577;52.122;5.406;2023-02-13T07:31:37;103828.88;;;6.28;91.37
71735;BME280;59577;52.122;5.406;2023-02-13T07:34:04;103829.19;;;6.31;91.06
71735;BME280;59577;52.122;5.406;2023-02-13T07:36:31;103826.03;;;6.34;91.33
71735;BME280;59577;52.122;5.406;2023-02-13T07:38:57;103831.16;;;6.36;91.44
71735;BME280;59577;52.122;5.406;2023-02-13T07:41:24;103827.16;;;6.38;91.02
71735;BME280;59577;52.122;5.406;2023-02-13T07:43:53;103829.59;;;6.40;91.29
71735;BME280;59577;52.122;5.406;2023-02-13T07:46:20;103832.03;;;6.42;91.26
71735;BME280;59577;52.122;5.406;2023-02-13T07:48:46;103829.66;;;6.45;91.10
71735;BME280;59577;52.122;5.406;2023-02-13T07:51:13;103835.09;;;6.50;91.20
71735;BME280;59577;52.122;5.406;2023-02-13T07:53:40;103830.03;;;6.54;90.88
71735;BME280;59577;52.122;5.406;2023-02-13T07:56:07;103843.56;;;6.59;90.74
71735;BME280;59577;52.122;5.406;2023-02-13T07:58:35;103846.56;;;6.63;90.85
71735;BME280;59577;52.122;5.406;2023-02-13T08:01:06;103848.50;;;6.67;91.05
71735;BME280;59577;52.122;5.406;2023-02-13T08:03:33;103849.66;;;6.71;90.74
71735;BME280;59577;52.122;5.406;2023-02-13T08:06:00;103851.56;;;6.76;90.99
71735;BME280;59577;52.122;5.406;2023-02-13T08:08:27;103852.44;;;6.82;90.86
71735;BME280;59577;52.122;5.406;2023-02-13T08:10:53;103856.84;;;6.88;90.86
71735;BME280;59577;52.122;5.406;2023-02-13T08:13:39;103863.41;;;6.97;90.19
71735;BME280;59577;52.122;5.406;2023-02-13T08:16:06;103865.09;;;7.03;90.29
71735;BME280;59577;52.122;5.406;2023-02-13T08:18:32;103862.47;;;7.08;89.80
71735;BME280;59577;52.122;5.406;2023-02-13T08:21:01;103874.59;;;7.11;89.72
71735;BME280;59577;52.122;5.406;2023-02-13T08:23:28;103865.47;;;7.12;89.68
71735;BME280;59577;52.122;5.406;2023-02-13T08:25:58;103868.22;;;7.17;89.90
71735;BME280;59577;52.122;5.406;2023-02-13T08:28:25;103863.44;;;7.24;89.54
71735;BME280;59577;52.122;5.406;2023-02-13T08:30:52;103864.03;;;7.31;89.35
71735;BME280;59577;52.122;5.406;2023-02-13T08:33:18;103858.69;;;7.37;89.29
71735;BME280;59577;52.122;5.406;2023-02-13T08:35:45;103864.13;;;7.42;89.42
71735;BME280;59577;52.122;5.406;2023-02-13T08:38:11;103871.22;;;7.48;89.27
71735;BME280;59577;52.122;5.406;2023-02-13T08:40:38;103873.66;;;7.49;89.02
71735;BME280;59577;52.122;5.406;2023-02-13T08:43:05;103867.47;;;7.54;89.15
71735;BME280;59577;52.122;5.406;2023-02-13T08:45:32;103867.78;;;7.58;88.22
71735;BME280;59577;52.122;5.406;2023-02-13T08:47:59;103867.81;;;7.63;88.48
71735;BME280;59577;52.122;5.406;2023-02-13T08:50:26;103867.13;;;7.72;88.01
71735;BME280;59577;52.122;5.406;2023-02-13T08:52:53;103873.94;;;7.85;88.02
71735;BME280;59577;52.122;5.406;2023-02-13T08:55:19;103872.19;;;8.01;87.85
71735;BME280;59577;52.122;5.406;2023-02-13T08:57:46;103867.94;;;8.10;86.91
71735;BME280;59577;52.122;5.406;2023-02-13T09:00:13;103866.13;;;8.21;87.18
71735;BME280;59577;52.122;5.406;2023-02-13T09:02:40;103868.72;;;8.43;86.82
71735;BME280;59577;52.122;5.406;2023-02-13T09:05:06;103865.25;;;8.53;85.69
71735;BME280;59577;52.122;5.406;2023-02-13T09:07:33;103864.53;;;8.73;85.29
71735;BME280;59577;52.122;5.406;2023-02-13T09:09:59;103873.22;;;8.85;83.67
71735;BME280;59577;52.122;5.406;2023-02-13T09:12:26;103869.50;;;9.07;84.35
71735;BME280;59577;52.122;5.406;2023-02-13T09:14:52;103872.53;;;9.31;83.05
71735;BME280;59577;52.122;5.406;2023-02-13T09:17:18;103869.56;;;9.22;82.65
71735;BME280;59577;52.122;5.406;2023-02-13T09:19:45;103866.53;;;9.09;81.87
71735;BME280;59577;52.122;5.406;2023-02-13T09:22:12;103865.19;;;9.06;82.68
71735;BME280;59577;52.122;5.406;2023-02-13T09:24:40;103868.13;;;9.04;82.30
71735;BME280;59577;52.122;5.406;2023-02-13T09:27:07;103872.97;;;8.97;82.90
71735;BME280;59577;52.122;5.406;2023-02-13T09:29:34;103870.56;;;9.01;82.31
71735;BME280;59577;52.122;5.406;2023-02-13T09:32:00;103863.28;;;9.01;82.79
71735;BME280;59577;52.122;5.406;2023-02-13T09:34:27;103871.94;;;9.09;82.33
71735;BME280;59577;52.122;5.406;2023-02-13T09:36:53;103872.22;;;9.12;82.28
71735;BME280;59577;52.122;5.406;2023-02-13T09:39:20;103870.63;;;9.21;82.16
71735;BME280;59577;52.122;5.406;2023-02-13T09:41:48;103859.03;;;9.36;81.72
71735;BME280;59577;52.122;5.406;2023-02-13T09:44:35;103858.47;;;9.39;80.39
71735;BME280;59577;52.122;5.406;2023-02-13T09:47:29;103857.69;;;9.65;80.60
71735;BME280;59577;52.122;5.406;2023-02-13T09:50:23;103857.41;;;9.92;79.30
71735;BME280;59577;52.122;5.406;2023-02-13T09:52:51;103858.72;;;10.15;79.34
71735;BME280;59577;52.122;5.406;2023-02-13T09:55:28;103860.09;;;10.33;78.13
71735;BME280;59577;52.122;5.406;2023-02-13T09:58:11;103857.13;;;10.14;77.37
71735;BME280;59577;52.122;5.406;2023-02-13T10:00:43;103858.44;;;10.27;77.83
71735;BME280;59577;52.122;5.406;2023-02-13T10:03:33;103865.75;;;10.42;76.75
71735;BME280;59577;52.122;5.406;2023-02-13T10:06:31;103860.56;;;10.56;75.69
71735;BME280;59577;52.122;5.406;2023-02-13T10:09:19;103864.72;;;10.87;76.04
71735;BME280;59577;52.122;5.406;2023-02-13T10:17:49;103859.97;;;11.88;70.24
71735;BME280;59577;52.122;5.406;2023-02-13T10:21:11;103865.00;;;11.70;70.29
71735;BME280;59577;52.122;5.406;2023-02-13T10:23:40;103861.69;;;11.44;70.75
71735;BME280;59577;52.122;5.406;2023-02-13T10:26:24;103860.13;;;11.67;72.27
71735;BME280;59577;52.122;5.406;2023-02-13T10:29:24;103861.69;;;12.32;69.08
71735;BME280;59577;52.122;5.406;2023-02-13T10:32:18;103852.56;;;12.22;68.79
71735;BME280;59577;52.122;5.406;2023-02-13T10:34:48;103858.16;;;12.55;68.26
71735;BME280;59577;52.122;5.406;2023-02-13T10:37:19;103854.94;;;12.05;68.07
71735;BME280;59577;52.122;5.406;2023-02-13T10:39:51;103842.28;;;11.90;69.35
71735;BME280;59577;52.122;5.406;2023-02-13T10:42:31;103855.34;;;12.17;68.66
71735;BME280;59577;52.122;5.406;2023-02-13T10:48:08;103856.53;;;12.97;67.91
71735;BME280;59577;52.122;5.406;2023-02-13T10:51:03;103843.31;;;13.48;66.12
71735;BME280;59577;52.122;5.406;2023-02-13T11:02:30;103843.72;;;14.16;62.22
71735;BME280;59577;52.122;5.406;2023-02-13T11:05:00;103834.50;;;13.84;63.36
71735;BME280;59577;52.122;5.406;2023-02-13T11:07:29;103840.25;;;13.96;62.52
71735;BME280;59577;52.122;5.406;2023-02-13T11:10:00;103834.69;;;13.73;62.48
71735;BME280;59577;52.122;5.406;2023-02-13T11:12:33;103832.81;;;13.41;63.69
71735;BME280;59577;52.122;5.406;2023-02-13T11:15:03;103828.88;;;13.47;62.79
71735;BME280;59577;52.122;5.406;2023-02-13T11:17:34;103828.34;;;12.50;64.51
71735;BME280;59577;52.122;5.406;2023-02-13T11:20:06;103823.72;;;12.27;66.10
71735;BME280;59577;52.122;5.406;2023-02-13T11:22:36;103822.84;;;12.55;66.12
71735;BME280;59577;52.122;5.406;2023-02-13T11:25:24;103820.16;;;13.12;66.92
71735;BME280;59577;52.122;5.406;2023-02-13T11:28:06;103822.69;;;13.75;63.21
71735;BME280;59577;52.122;5.406;2023-02-13T11:30:36;103822.63;;;13.28;62.44
71735;BME280;59577;52.122;5.406;2023-02-13T11:35:44;103810.09;;;13.92;65.18
71735;BME280;59577;52.122;5.406;2023-02-13T11:41:05;103795.25;;;15.58;57.95
71735;BME280;59577;52.122;5.406;2023-02-13T11:43:36;103789.38;;;15.42;57.43
71735;BME280;59577;52.122;5.406;2023-02-13T11:46:11;103791.06;;;15.30;58.81
71735;BME280;59577;52.122;5.406;2023-02-13T11:48:42;103791.13;;;15.70;57.44
71735;BME280;59577;52.122;5.406;2023-02-13T11:51:10;103785.84;;;16.13;56.27
71735;BME280;59577;52.122;5.406;2023-02-13T11:53:38;103780.88;;;16.24;55.48
71735;BME280;59577;52.122;5.406;2023-02-13T11:56:14;103787.19;;;15.85;56.35
71735;BME280;59577;52.122;5.406;2023-02-13T11:58:41;103773.38;;;15.90;55.78
71735;BME280;59577;52.122;5.406;2023-02-13T12:01:30;103769.56;;;15.59;56.52
71735;BME280;59577;52.122;5.406;2023-02-13T12:03:56;103770.59;;;15.18;57.36
71735;BME280;59577;52.122;5.406;2023-02-13T12:06:23;103763.56;;;15.49;57.06
71735;BME280;59577;52.122;5.406;2023-02-13T12:08:50;103767.13;;;15.27;55.89
71735;BME280;59577;52.122;5.406;2023-02-13T12:11:34;103762.69;;;14.35;57.86
71735;BME280;59577;52.122;5.406;2023-02-13T12:14:01;103764.94;;;14.19;59.49
71735;BME280;59577;52.122;5.406;2023-02-13T12:16:37;103761.19;;;14.15;59.74
71735;BME280;59577;52.122;5.406;2023-02-13T12:19:11;103764.28;;;13.67;59.88
71735;BME280;59577;52.122;5.406;2023-02-13T12:21:50;103768.06;;;12.86;61.83
71735;BME280;59577;52.122;5.406;2023-02-13T12:27:28;103758.22;;;12.52;64.49
71735;BME280;59577;52.122;5.406;2023-02-13T12:33:08;103760.63;;;12.92;64.50
71735;BME280;59577;52.122;5.406;2023-02-13T12:49:26;103746.84;;;12.50;66.23
71735;BME280;59577;52.122;5.406;2023-02-13T12:57:40;103739.88;;;12.01;67.12
71735;BME280;59577;52.122;5.406;2023-02-13T13:06:26;103731.28;;;12.13;67.34
71735;BME280;59577;52.122;5.406;2023-02-13T13:09:19;103727.72;;;11.93;66.99
71735;BME280;59577;52.122;5.406;2023-02-13T13:14:54;103722.69;;;11.81;68.28
71735;BME280;59577;52.122;5.406;2023-02-13T13:18:08;103726.09;;;11.68;68.21
71735;BME280;59577;52.122;5.406;2023-02-13T13:21:04;103713.66;;;11.62;68.42
71735;BME280;59577;52.122;5.406;2023-02-13T13:23:37;103712.88;;;11.61;68.86
71735;BME280;59577;52.122;5.406;2023-02-13T13:28:54;103707.28;;;11.53;69.35
71735;BME280;59577;52.122;5.406;2023-02-13T13:31:22;103704.28;;;11.54;68.92
71735;BME280;59577;52.122;5.406;2023-02-13T13:33:54;103702.97;;;11.46;69.10
71735;BME280;59577;52.122;5.406;2023-02-13T13:36:46;103684.84;;;11.42;69.52
71735;BME280;59577;52.122;5.406;2023-02-13T13:39:41;103696.41;;;11.53;69.67
71735;BME280;59577;52.122;5.406;2023-02-13T13:42:30;103691.50;;;11.55;69.26
71735;BME280;59577;52.122;5.406;2023-02-13T13:45:16;103681.56;;;11.45;69.01
71735;BME280;59577;52.122;5.406;2023-02-13T13:50:39;103678.72;;;11.31;69.90
71735;BME280;59577;52.122;5.406;2023-02-13T13:58:46;103675.44;;;11.34;69.97
71735;BME280;59577;52.122;5.406;2023-02-13T14:01:28;103672.97;;;11.38;69.80
71735;BME280;59577;52.122;5.406;2023-02-13T14:04:36;103675.38;;;11.39;70.15
71735;BME280;59577;52.122;5.406;2023-02-13T14:11:56;103662.75;;;11.54;70.07
71735;BME280;59577;52.122;5.406;2023-02-13T14:16:55;103662.81;;;11.48;70.25
71735;BME280;59577;52.122;5.406;2023-02-13T14:19:36;103661.16;;;11.53;70.45
71735;BME280;59577;52.122;5.406;2023-02-13T14:24:56;103659.88;;;11.45;70.30
71735;BME280;59577;52.122;5.406;2023-02-13T14:27:26;103652.34;;;11.37;70.27
71735;BME280;59577;52.122;5.406;2023-02-13T14:29:54;103654.25;;;11.36;70.67
71735;BME280;59577;52.122;5.406;2023-02-13T14:32:29;103653.19;;;11.37;70.56
71735;BME280;59577;52.122;5.406;2023-02-13T14:35:03;103660.19;;;11.38;70.61
71735;BME280;59577;52.122;5.406;2023-02-13T14:37:36;103655.16;;;11.32;70.15
71735;BME280;59577;52.122;5.406;2023-02-13T14:40:28;103653.84;;;11.24;70.54
71735;BME280;59577;52.122;5.406;2023-02-13T14:45:30;103647.63;;;11.23;71.42
71735;BME280;59577;52.122;5.406;2023-02-13T14:48:05;103647.63;;;11.23;71.01
71735;BME280;59577;52.122;5.406;2023-02-13T14:50:53;103647.63;;;11.23;71.47
71735;BME280;59577;52.122;5.406;2023-02-13T14:53:27;103649.50;;;11.23;71.52
71735;BME280;59577;52.122;5.406;2023-02-13T14:55:58;103643.56;;;11.21;71.67
71735;BME280;59577;52.122;5.406;2023-02-13T14:58:32;103647.16;;;11.16;71.51
71735;BME280;59577;52.122;5.406;2023-02-13T15:01:20;103638.47;;;11.14;71.54
71735;BME280;59577;52.122;5.406;2023-02-13T15:03:57;103646.09;;;11.12;71.68
71735;BME280;59577;52.122;5.406;2023-02-13T15:06:27;103634.50;;;11.06;71.88
71735;BME280;59577;52.122;5.406;2023-02-13T15:08:55;103635.59;;;11.05;71.62
71735;BME280;59577;52.122;5.406;2023-02-13T15:11:41;103641.00;;;11.05;71.67
71735;BME280;59577;52.122;5.406;2023-02-13T15:14:38;103639.16;;;11.01;71.93
71735;BME280;59577;52.122;5.406;2023-02-13T15:17:13;103638.06;;;11.02;71.72
71735;BME280;59577;52.122;5.406;2023-02-13T15:19:46;103636.19;;;11.02;72.30
71735;BME280;59577;52.122;5.406;2023-02-13T15:22:35;103640.78;;;11.02;72.57